sensor_id;sensor_type;location;lat;lon;timestamp;P1;durP1;ratioP1;P2;durP2;ratioP2
41875;SDS011;27555;50.808;4.402;2023-07-02T00:01:40;31.77;;;13.18;;
41875;SDS011;27555;50.808;4.402;2023-07-02T00:04:06;30.58;;;12.88;;
41875;SDS011;27555;50.808;4.402;2023-07-02T00:06:33;25.30;;;11.85;;
41875;SDS011;27555;50.808;4.402;2023-07-02T00:09:09;31.98;;;13.60;;
41875;SDS011;27555;50.808;4.402;2023-07-02T00:11:38;33.03;;;13.02;;
41875;SDS011;27555;50.808;4.402;2023-07-02T00:14:04;27.17;;;12.52;;
41875;SDS011;27555;50.808;4.402;2023-07-02T00:16:30;55.38;;;14.90;;
41875;SDS011;27555;50.808;4.402;2023-07-02T00:18:56;30.25;;;13.00;;
41875;SDS011;27555;50.808;4.402;2023-07-02T00:21:22;34.28;;;14.32;;
41875;SDS011;27555;50.808;4.402;2023-07-02T00:23:53;39.75;;;14.80;;
41875;SDS011;27555;50.808;4.402;2023-07-02T00:26:22;29.23;;;12.70;;
41875;SDS011;27555;50.808;4.402;2023-07-02T00:28:52;28.80;;;13.77;;
41875;SDS011;27555;50.808;4.402;2023-07-02T00:31:18;36.17;;;14.10;;
41875;SDS011;27555;50.808;4.402;2023-07-02T00:33:44;35.97;;;14.82;;
41875;SDS011;27555;50.808;4.402;2023-07-02T00:36:10;34.42;;;13.40;;
41875;SDS011;27555;50.808;4.402;2023-07-02T00:38:40;27.70;;;13.27;;
41875;SDS011;27555;50.808;4.402;2023-07-02T00:41:14;31.73;;;12.63;;
41875;SDS011;27555;50.808;4.402;2023-07-02T00:43:41;35.30;;;14.77;;
41875;SDS011;27555;50.808;4.402;2023-07-02T00:46:16;30.85;;;14.15;;
41875;SDS011;27555;50.808;4.402;2023-07-02T00:48:45;26.67;;;13.32;;
41875;SDS011;27555;50.808;4.402;2023-07-02T00:51:15;31.67;;;13.73;;
41875;SDS011;27555;50.808;4.402;2023-07-02T00:53:52;34.92;;;14.50;;
41875;SDS011;27555;50.808;4.402;2023-07-02T00:56:20;33.55;;;14.85;;
41875;SDS011;27555;50.808;4.402;2023-07-02T00:58:47;30.25;;;13.95;;
41875;SDS011;27555;50.808;4.402;2023-07-02T01:01:21;31.48;;;13.50;;
41875;SDS011;27555;50.808;4.402;2023-07-02T01:04:08;40.45;;;14.52;;
41875;SDS011;27555;50.808;4.402;2023-07-02T01:06:35;33.58;;;14.50;;
41875;SDS011;27555;50.808;4.402;2023-07-02T01:09:02;37.25;;;15.20;;
41875;SDS011;27555;50.808;4.402;2023-07-02T01:11:34;33.60;;;14.57;;
41875;SDS011;27555;50.808;4.402;2023-07-02T01:14:04;34.42;;;14.85;;
41875;SDS011;27555;50.808;4.402;2023-07-02T01:16:33;41.88;;;15.82;;
41875;SDS011;27555;50.808;4.402;2023-07-02T01:19:02;39.75;;;15.68;;
41875;SDS011;27555;50.808;4.402;2023-07-02T01:21:32;37.97;;;15.50;;
41875;SDS011;27555;50.808;4.402;2023-07-02T01:23:59;33.42;;;14.30;;
41875;SDS011;27555;50.808;4.402;2023-07-02T01:26:27;32.85;;;14.68;;
41875;SDS011;27555;50.808;4.402;2023-07-02T01:29:17;38.92;;;15.68;;
41875;SDS011;27555;50.808;4.402;2023-07-02T01:31:44;32.53;;;15.60;;
41875;SDS011;27555;50.808;4.402;2023-07-02T01:34:10;31.65;;;15.48;;
41875;SDS011;27555;50.808;4.402;2023-07-02T01:36:36;36.25;;;15.93;;
41875;SDS011;27555;50.808;4.402;2023-07-02T01:39:03;39.72;;;16.00;;
41875;SDS011;27555;50.808;4.402;2023-07-02T01:41:29;31.90;;;14.60;;
41875;SDS011;27555;50.808;4.402;2023-07-02T01:43:54;34.55;;;15.48;;
41875;SDS011;27555;50.808;4.402;2023-07-02T01:46:20;33.92;;;16.63;;
41875;SDS011;27555;50.808;4.402;2023-07-02T01:48:46;37.63;;;17.08;;
41875;SDS011;27555;50.808;4.402;2023-07-02T01:51:12;42.95;;;17.58;;
41875;SDS011;27555;50.808;4.402;2023-07-02T01:53:38;36.45;;;14.93;;
41875;SDS011;27555;50.808;4.402;2023-07-02T01:56:04;45.75;;;16.15;;
41875;SDS011;27555;50.808;4.402;2023-07-02T01:58:30;45.42;;;17.45;;
41875;SDS011;27555;50.808;4.402;2023-07-02T02:00:55;37.35;;;16.40;;
41875;SDS011;27555;50.808;4.402;2023-07-02T02:03:21;45.45;;;17.75;;
41875;SDS011;27555;50.808;4.402;2023-07-02T02:05:47;40.58;;;19.08;;
41875;SDS011;27555;50.808;4.402;2023-07-02T02:08:13;36.90;;;17.30;;
41875;SDS011;27555;50.808;4.402;2023-07-02T02:10:38;42.20;;;17.40;;
41875;SDS011;27555;50.808;4.402;2023-07-02T02:13:04;42.55;;;18.92;;
41875;SDS011;27555;50.808;4.402;2023-07-02T02:15:30;45.67;;;18.02;;
41875;SDS011;27555;50.808;4.402;2023-07-02T02:17:55;46.25;;;17.65;;
41875;SDS011;27555;50.808;4.402;2023-07-02T02:20:21;41.67;;;18.10;;
41875;SDS011;27555;50.808;4.402;2023-07-02T02:22:46;47.83;;;19.17;;
41875;SDS011;27555;50.808;4.402;2023-07-02T02:25:12;47.67;;;18.40;;
41875;SDS011;27555;50.808;4.402;2023-07-02T02:27:38;49.80;;;17.38;;
41875;SDS011;27555;50.808;4.402;2023-07-02T02:30:04;44.67;;;17.98;;
41875;SDS011;27555;50.808;4.402;2023-07-02T02:32:30;39.38;;;17.88;;
41875;SDS011;27555;50.808;4.402;2023-07-02T02:34:56;44.88;;;18.45;;
41875;SDS011;27555;50.808;4.402;2023-07-02T02:37:21;46.03;;;18.63;;
41875;SDS011;27555;50.808;4.402;2023-07-02T02:39:48;69.97;;;21.02;;
41875;SDS011;27555;50.808;4.402;2023-07-02T02:42:14;52.78;;;19.58;;
41875;SDS011;27555;50.808;4.402;2023-07-02T02:44:39;47.92;;;18.77;;
41875;SDS011;27555;50.808;4.402;2023-07-02T02:47:05;49.45;;;18.83;;
41875;SDS011;27555;50.808;4.402;2023-07-02T02:49:31;50.83;;;20.80;;
41875;SDS011;27555;50.808;4.402;2023-07-02T02:51:56;53.92;;;19.15;;
41875;SDS011;27555;50.808;4.402;2023-07-02T02:54:22;49.65;;;19.58;;
41875;SDS011;27555;50.808;4.402;2023-07-02T02:56:47;52.20;;;20.35;;
41875;SDS011;27555;50.808;4.402;2023-07-02T02:59:13;42.15;;;18.23;;
41875;SDS011;27555;50.808;4.402;2023-07-02T03:01:38;45.83;;;18.20;;
41875;SDS011;27555;50.808;4.402;2023-07-02T03:04:04;51.50;;;20.40;;
41875;SDS011;27555;50.808;4.402;2023-07-02T03:06:33;65.43;;;20.73;;
41875;SDS011;27555;50.808;4.402;2023-07-02T03:08:58;54.33;;;19.92;;
41875;SDS011;27555;50.808;4.402;2023-07-02T03:11:24;55.83;;;20.55;;
41875;SDS011;27555;50.808;4.402;2023-07-02T03:13:50;58.60;;;21.48;;
41875;SDS011;27555;50.808;4.402;2023-07-02T03:16:15;61.22;;;21.45;;
41875;SDS011;27555;50.808;4.402;2023-07-02T03:18:41;50.70;;;19.67;;
41875;SDS011;27555;50.808;4.402;2023-07-02T03:21:06;58.25;;;20.70;;
41875;SDS011;27555;50.808;4.402;2023-07-02T03:23:32;47.83;;;19.58;;
41875;SDS011;27555;50.808;4.402;2023-07-02T03:25:57;52.53;;;20.90;;
41875;SDS011;27555;50.808;4.402;2023-07-02T03:28:23;56.55;;;21.42;;
41875;SDS011;27555;50.808;4.402;2023-07-02T03:30:48;53.67;;;21.35;;
41875;SDS011;27555;50.808;4.402;2023-07-02T03:33:14;55.72;;;21.92;;
41875;SDS011;27555;50.808;4.402;2023-07-02T03:35:40;58.05;;;21.40;;
41875;SDS011;27555;50.808;4.402;2023-07-02T03:38:05;49.33;;;20.83;;
41875;SDS011;27555;50.808;4.402;2023-07-02T03:40:31;58.22;;;21.73;;
41875;SDS011;27555;50.808;4.402;2023-07-02T03:42:57;56.67;;;20.02;;
41875;SDS011;27555;50.808;4.402;2023-07-02T03:45:22;57.10;;;23.02;;
41875;SDS011;27555;50.808;4.402;2023-07-02T03:47:48;52.20;;;19.70;;
41875;SDS011;27555;50.808;4.402;2023-07-02T03:50:13;67.53;;;22.73;;
41875;SDS011;27555;50.808;4.402;2023-07-02T03:52:39;51.08;;;21.20;;
41875;SDS011;27555;50.808;4.402;2023-07-02T03:55:05;52.50;;;21.13;;
41875;SDS011;27555;50.808;4.402;2023-07-02T03:57:31;52.25;;;20.83;;
41875;SDS011;27555;50.808;4.402;2023-07-02T03:59:56;53.53;;;21.63;;
41875;SDS011;27555;50.808;4.402;2023-07-02T04:02:22;59.03;;;22.80;;
41875;SDS011;27555;50.808;4.402;2023-07-02T04:04:47;63.13;;;22.10;;
41875;SDS011;27555;50.808;4.402;2023-07-02T04:07:13;57.22;;;21.20;;
41875;SDS011;27555;50.808;4.402;2023-07-02T04:09:39;58.42;;;22.10;;
41875;SDS011;27555;50.808;4.402;2023-07-02T04:12:04;61.03;;;22.25;;
41875;SDS011;27555;50.808;4.402;2023-07-02T04:14:30;58.30;;;20.98;;
41875;SDS011;27555;50.808;4.402;2023-07-02T04:16:56;65.57;;;22.17;;
41875;SDS011;27555;50.808;4.402;2023-07-02T04:19:21;54.90;;;22.23;;
41875;SDS011;27555;50.808;4.402;2023-07-02T04:21:47;59.95;;;23.00;;
41875;SDS011;27555;50.808;4.402;2023-07-02T04:24:12;63.38;;;24.05;;
41875;SDS011;27555;50.808;4.402;2023-07-02T04:26:38;69.88;;;23.35;;
41875;SDS011;27555;50.808;4.402;2023-07-02T04:29:07;61.83;;;23.08;;
41875;SDS011;27555;50.808;4.402;2023-07-02T04:31:34;67.80;;;23.30;;
41875;SDS011;27555;50.808;4.402;2023-07-02T04:33:59;53.72;;;22.80;;
41875;SDS011;27555;50.808;4.402;2023-07-02T04:36:25;50.60;;;22.55;;
41875;SDS011;27555;50.808;4.402;2023-07-02T04:38:51;57.03;;;21.30;;
41875;SDS011;27555;50.808;4.402;2023-07-02T04:41:17;59.17;;;22.38;;
41875;SDS011;27555;50.808;4.402;2023-07-02T04:43:43;67.22;;;23.95;;
41875;SDS011;27555;50.808;4.402;2023-07-02T04:46:10;63.25;;;22.30;;
41875;SDS011;27555;50.808;4.402;2023-07-02T04:48:37;57.35;;;22.63;;
41875;SDS011;27555;50.808;4.402;2023-07-02T04:51:03;58.47;;;21.60;;
41875;SDS011;27555;50.808;4.402;2023-07-02T04:53:28;55.67;;;22.00;;
41875;SDS011;27555;50.808;4.402;2023-07-02T04:55:54;59.15;;;22.52;;
41875;SDS011;27555;50.808;4.402;2023-07-02T04:58:21;60.83;;;23.23;;
41875;SDS011;27555;50.808;4.402;2023-07-02T05:00:47;57.55;;;20.85;;
41875;SDS011;27555;50.808;4.402;2023-07-02T05:03:12;62.83;;;23.10;;
41875;SDS011;27555;50.808;4.402;2023-07-02T05:05:38;53.78;;;21.23;;
41875;SDS011;27555;50.808;4.402;2023-07-02T05:08:04;51.40;;;21.75;;
41875;SDS011;27555;50.808;4.402;2023-07-02T05:10:29;55.40;;;21.40;;
41875;SDS011;27555;50.808;4.402;2023-07-02T05:12:55;47.30;;;19.95;;
41875;SDS011;27555;50.808;4.402;2023-07-02T05:15:20;54.28;;;21.15;;
41875;SDS011;27555;50.808;4.402;2023-07-02T05:17:46;56.92;;;22.27;;
41875;SDS011;27555;50.808;4.402;2023-07-02T05:20:12;54.80;;;20.73;;
41875;SDS011;27555;50.808;4.402;2023-07-02T05:22:37;56.97;;;21.48;;
41875;SDS011;27555;50.808;4.402;2023-07-02T05:25:03;55.05;;;22.15;;
41875;SDS011;27555;50.808;4.402;2023-07-02T05:27:29;51.83;;;21.90;;
41875;SDS011;27555;50.808;4.402;2023-07-02T05:29:54;59.92;;;22.63;;
41875;SDS011;27555;50.808;4.402;2023-07-02T05:32:20;56.92;;;22.35;;
41875;SDS011;27555;50.808;4.402;2023-07-02T05:34:46;56.85;;;22.33;;
41875;SDS011;27555;50.808;4.402;2023-07-02T05:37:11;58.50;;;22.60;;
41875;SDS011;27555;50.808;4.402;2023-07-02T05:39:37;54.67;;;22.13;;
41875;SDS011;27555;50.808;4.402;2023-07-02T05:42:03;64.65;;;22.17;;
41875;SDS011;27555;50.808;4.402;2023-07-02T05:44:29;54.47;;;21.55;;
41875;SDS011;27555;50.808;4.402;2023-07-02T05:46:54;55.20;;;22.45;;
41875;SDS011;27555;50.808;4.402;2023-07-02T05:49:20;54.17;;;22.05;;
41875;SDS011;27555;50.808;4.402;2023-07-02T05:51:46;62.78;;;23.13;;
41875;SDS011;27555;50.808;4.402;2023-07-02T05:54:11;58.08;;;21.88;;
41875;SDS011;27555;50.808;4.402;2023-07-02T05:56:37;53.92;;;20.58;;
41875;SDS011;27555;50.808;4.402;2023-07-02T05:59:02;51.20;;;22.75;;
41875;SDS011;27555;50.808;4.402;2023-07-02T06:01:28;55.95;;;20.80;;
41875;SDS011;27555;50.808;4.402;2023-07-02T06:03:53;46.05;;;21.08;;
41875;SDS011;27555;50.808;4.402;2023-07-02T06:06:20;54.53;;;20.80;;
41875;SDS011;27555;50.808;4.402;2023-07-02T06:08:47;54.97;;;19.70;;
41875;SDS011;27555;50.808;4.402;2023-07-02T06:11:13;47.35;;;19.80;;
41875;SDS011;27555;50.808;4.402;2023-07-02T06:13:38;64.03;;;21.15;;
41875;SDS011;27555;50.808;4.402;2023-07-02T06:16:04;60.20;;;23.30;;
41875;SDS011;27555;50.808;4.402;2023-07-02T06:18:29;54.60;;;20.65;;
41875;SDS011;27555;50.808;4.402;2023-07-02T06:20:55;47.25;;;19.90;;
41875;SDS011;27555;50.808;4.402;2023-07-02T06:23:21;55.95;;;20.38;;
41875;SDS011;27555;50.808;4.402;2023-07-02T06:25:46;50.88;;;20.08;;
41875;SDS011;27555;50.808;4.402;2023-07-02T06:28:12;46.72;;;19.13;;
41875;SDS011;27555;50.808;4.402;2023-07-02T06:30:37;51.75;;;19.58;;
41875;SDS011;27555;50.808;4.402;2023-07-02T06:33:03;46.33;;;19.17;;
41875;SDS011;27555;50.808;4.402;2023-07-02T06:35:28;45.28;;;20.65;;
41875;SDS011;27555;50.808;4.402;2023-07-02T06:37:54;45.30;;;19.67;;
41875;SDS011;27555;50.808;4.402;2023-07-02T06:40:20;56.03;;;20.67;;
41875;SDS011;27555;50.808;4.402;2023-07-02T06:42:47;44.50;;;19.80;;
41875;SDS011;27555;50.808;4.402;2023-07-02T06:45:13;45.97;;;19.60;;
41875;SDS011;27555;50.808;4.402;2023-07-02T06:47:38;35.75;;;18.15;;
41875;SDS011;27555;50.808;4.402;2023-07-02T06:50:04;62.83;;;19.60;;
41875;SDS011;27555;50.808;4.402;2023-07-02T06:52:30;55.20;;;19.13;;
41875;SDS011;27555;50.808;4.402;2023-07-02T06:54:56;36.78;;;17.00;;
41875;SDS011;27555;50.808;4.402;2023-07-02T06:57:21;48.05;;;18.67;;
41875;SDS011;27555;50.808;4.402;2023-07-02T06:59:48;41.65;;;18.17;;
41875;SDS011;27555;50.808;4.402;2023-07-02T07:02:14;46.20;;;16.73;;
41875;SDS011;27555;50.808;4.402;2023-07-02T07:04:39;39.53;;;16.90;;
41875;SDS011;27555;50.808;4.402;2023-07-02T07:07:05;39.22;;;16.08;;
41875;SDS011;27555;50.808;4.402;2023-07-02T07:09:31;43.80;;;17.02;;
41875;SDS011;27555;50.808;4.402;2023-07-02T07:11:56;38.35;;;16.15;;
41875;SDS011;27555;50.808;4.402;2023-07-02T07:14:22;39.40;;;16.42;;
41875;SDS011;27555;50.808;4.402;2023-07-02T07:16:47;39.05;;;15.43;;
41875;SDS011;27555;50.808;4.402;2023-07-02T07:19:13;38.00;;;14.48;;
41875;SDS011;27555;50.808;4.402;2023-07-02T07:21:39;37.55;;;13.85;;
41875;SDS011;27555;50.808;4.402;2023-07-02T07:24:05;36.38;;;14.63;;
41875;SDS011;27555;50.808;4.402;2023-07-02T07:26:31;27.55;;;13.38;;
41875;SDS011;27555;50.808;4.402;2023-07-02T07:28:56;32.33;;;12.57;;
41875;SDS011;27555;50.808;4.402;2023-07-02T07:31:23;36.92;;;13.77;;
41875;SDS011;27555;50.808;4.402;2023-07-02T07:33:48;27.55;;;10.88;;
41875;SDS011;27555;50.808;4.402;2023-07-02T07:36:14;29.30;;;10.90;;
41875;SDS011;27555;50.808;4.402;2023-07-02T07:38:40;25.48;;;10.75;;
41875;SDS011;27555;50.808;4.402;2023-07-02T07:41:07;27.17;;;12.25;;
41875;SDS011;27555;50.808;4.402;2023-07-02T07:43:33;26.90;;;10.52;;
41875;SDS011;27555;50.808;4.402;2023-07-02T07:45:59;22.65;;;9.95;;
41875;SDS011;27555;50.808;4.402;2023-07-02T07:48:25;25.55;;;10.55;;
41875;SDS011;27555;50.808;4.402;2023-07-02T07:50:50;27.58;;;11.18;;
41875;SDS011;27555;50.808;4.402;2023-07-02T07:53:16;27.20;;;10.60;;
41875;SDS011;27555;50.808;4.402;2023-07-02T07:55:41;34.83;;;11.45;;
41875;SDS011;27555;50.808;4.402;2023-07-02T07:58:07;23.60;;;11.15;;
41875;SDS011;27555;50.808;4.402;2023-07-02T08:00:32;29.23;;;10.98;;
41875;SDS011;27555;50.808;4.402;2023-07-02T08:02:58;27.42;;;10.20;;
41875;SDS011;27555;50.808;4.402;2023-07-02T08:05:25;26.60;;;11.05;;
41875;SDS011;27555;50.808;4.402;2023-07-02T08:07:51;25.20;;;10.55;;
41875;SDS011;27555;50.808;4.402;2023-07-02T08:10:18;27.58;;;11.48;;
41875;SDS011;27555;50.808;4.402;2023-07-02T08:12:44;26.73;;;10.82;;
41875;SDS011;27555;50.808;4.402;2023-07-02T08:15:12;27.77;;;10.52;;
41875;SDS011;27555;50.808;4.402;2023-07-02T08:17:37;31.67;;;11.48;;
41875;SDS011;27555;50.808;4.402;2023-07-02T08:20:03;26.42;;;10.75;;
41875;SDS011;27555;50.808;4.402;2023-07-02T08:22:30;29.65;;;10.93;;
41875;SDS011;27555;50.808;4.402;2023-07-02T08:24:55;26.48;;;11.15;;
41875;SDS011;27555;50.808;4.402;2023-07-02T08:27:21;21.25;;;9.77;;
41875;SDS011;27555;50.808;4.402;2023-07-02T08:29:48;26.67;;;10.57;;
41875;SDS011;27555;50.808;4.402;2023-07-02T08:32:14;39.95;;;12.65;;
41875;SDS011;27555;50.808;4.402;2023-07-02T08:34:40;26.45;;;10.32;;
41875;SDS011;27555;50.808;4.402;2023-07-02T08:37:05;22.35;;;10.00;;
41875;SDS011;27555;50.808;4.402;2023-07-02T08:39:31;29.63;;;10.40;;
41875;SDS011;27555;50.808;4.402;2023-07-02T08:41:57;24.90;;;10.85;;
41875;SDS011;27555;50.808;4.402;2023-07-02T08:44:22;26.73;;;10.07;;
41875;SDS011;27555;50.808;4.402;2023-07-02T08:46:49;23.33;;;9.77;;
41875;SDS011;27555;50.808;4.402;2023-07-02T08:49:16;23.83;;;11.18;;
41875;SDS011;27555;50.808;4.402;2023-07-02T08:51:44;32.75;;;11.40;;
41875;SDS011;27555;50.808;4.402;2023-07-02T08:54:10;27.50;;;10.65;;
41875;SDS011;27555;50.808;4.402;2023-07-02T08:56:36;27.15;;;11.70;;
41875;SDS011;27555;50.808;4.402;2023-07-02T08:59:01;30.50;;;12.02;;
41875;SDS011;27555;50.808;4.402;2023-07-02T09:01:27;31.33;;;12.45;;
41875;SDS011;27555;50.808;4.402;2023-07-02T09:03:57;26.30;;;11.60;;
41875;SDS011;27555;50.808;4.402;2023-07-02T09:06:27;24.08;;;10.68;;
41875;SDS011;27555;50.808;4.402;2023-07-02T09:08:52;24.23;;;10.05;;
41875;SDS011;27555;50.808;4.402;2023-07-02T09:11:18;25.20;;;11.05;;
41875;SDS011;27555;50.808;4.402;2023-07-02T09:13:48;24.17;;;10.38;;
41875;SDS011;27555;50.808;4.402;2023-07-02T09:16:25;19.65;;;9.77;;
41875;SDS011;27555;50.808;4.402;2023-07-02T09:18:59;25.95;;;10.27;;
41875;SDS011;27555;50.808;4.402;2023-07-02T09:21:26;28.60;;;10.20;;
41875;SDS011;27555;50.808;4.402;2023-07-02T09:23:53;29.15;;;11.25;;
41875;SDS011;27555;50.808;4.402;2023-07-02T09:26:20;31.23;;;12.48;;
41875;SDS011;27555;50.808;4.402;2023-07-02T09:28:49;33.45;;;11.40;;
41875;SDS011;27555;50.808;4.402;2023-07-02T09:31:14;31.05;;;11.25;;
41875;SDS011;27555;50.808;4.402;2023-07-02T09:33:40;23.60;;;9.27;;
41875;SDS011;27555;50.808;4.402;2023-07-02T09:36:06;23.33;;;9.85;;
41875;SDS011;27555;50.808;4.402;2023-07-02T09:38:32;19.83;;;8.75;;
41875;SDS011;27555;50.808;4.402;2023-07-02T09:40:57;23.10;;;8.75;;
41875;SDS011;27555;50.808;4.402;2023-07-02T09:43:24;24.42;;;9.00;;
41875;SDS011;27555;50.808;4.402;2023-07-02T09:45:52;25.85;;;10.27;;
41875;SDS011;27555;50.808;4.402;2023-07-02T09:48:21;24.73;;;10.52;;
41875;SDS011;27555;50.808;4.402;2023-07-02T09:50:52;23.60;;;9.48;;
41875;SDS011;27555;50.808;4.402;2023-07-02T09:53:19;22.95;;;9.77;;
41875;SDS011;27555;50.808;4.402;2023-07-02T09:55:45;25.17;;;9.02;;
41875;SDS011;27555;50.808;4.402;2023-07-02T09:58:10;25.15;;;10.48;;
41875;SDS011;27555;50.808;4.402;2023-07-02T10:00:39;22.15;;;8.73;;
41875;SDS011;27555;50.808;4.402;2023-07-02T10:03:05;24.27;;;9.07;;
41875;SDS011;27555;50.808;4.402;2023-07-02T10:05:31;28.55;;;10.18;;
41875;SDS011;27555;50.808;4.402;2023-07-02T10:07:58;19.50;;;8.32;;
41875;SDS011;27555;50.808;4.402;2023-07-02T10:10:36;20.90;;;8.77;;
41875;SDS011;27555;50.808;4.402;2023-07-02T10:13:02;24.80;;;9.93;;
41875;SDS011;27555;50.808;4.402;2023-07-02T10:15:28;22.80;;;8.90;;
41875;SDS011;27555;50.808;4.402;2023-07-02T10:17:57;21.92;;;9.43;;
41875;SDS011;27555;50.808;4.402;2023-07-02T10:20:39;25.42;;;10.07;;
41875;SDS011;27555;50.808;4.402;2023-07-02T10:23:06;27.08;;;10.32;;
41875;SDS011;27555;50.808;4.402;2023-07-02T10:25:34;29.58;;;9.68;;
41875;SDS011;27555;50.808;4.402;2023-07-02T10:28:13;25.67;;;10.18;;
41875;SDS011;27555;50.808;4.402;2023-07-02T10:30:44;21.42;;;10.38;;
41875;SDS011;27555;50.808;4.402;2023-07-02T10:33:14;27.30;;;10.77;;
41875;SDS011;27555;50.808;4.402;2023-07-02T10:35:42;22.05;;;9.00;;
41875;SDS011;27555;50.808;4.402;2023-07-02T10:40:43;27.17;;;9.93;;
41875;SDS011;27555;50.808;4.402;2023-07-02T10:43:08;22.65;;;9.32;;
41875;SDS011;27555;50.808;4.402;2023-07-02T10:45:35;25.48;;;10.70;;
41875;SDS011;27555;50.808;4.402;2023-07-02T10:48:04;28.45;;;10.30;;
41875;SDS011;27555;50.808;4.402;2023-07-02T10:50:38;23.00;;;9.02;;
41875;SDS011;27555;50.808;4.402;2023-07-02T10:53:04;24.05;;;9.85;;
41875;SDS011;27555;50.808;4.402;2023-07-02T10:55:30;24.95;;;9.25;;
41875;SDS011;27555;50.808;4.402;2023-07-02T10:58:06;27.63;;;10.07;;
41875;SDS011;27555;50.808;4.402;2023-07-02T11:00:42;23.58;;;10.43;;
41875;SDS011;27555;50.808;4.402;2023-07-02T11:03:21;20.35;;;9.55;;
41875;SDS011;27555;50.808;4.402;2023-07-02T11:05:49;21.98;;;9.45;;
41875;SDS011;27555;50.808;4.402;2023-07-02T11:08:15;22.10;;;8.82;;
41875;SDS011;27555;50.808;4.402;2023-07-02T11:10:41;20.08;;;7.78;;
41875;SDS011;27555;50.808;4.402;2023-07-02T11:13:17;19.48;;;8.32;;
41875;SDS011;27555;50.808;4.402;2023-07-02T11:15:44;23.77;;;9.10;;
41875;SDS011;27555;50.808;4.402;2023-07-02T11:18:13;26.65;;;9.93;;
41875;SDS011;27555;50.808;4.402;2023-07-02T11:20:41;23.90;;;9.98;;
41875;SDS011;27555;50.808;4.402;2023-07-02T11:25:54;25.23;;;8.88;;
41875;SDS011;27555;50.808;4.402;2023-07-02T11:28:27;22.08;;;8.00;;
41875;SDS011;27555;50.808;4.402;2023-07-02T11:30:54;23.27;;;8.68;;
41875;SDS011;27555;50.808;4.402;2023-07-02T11:33:20;21.70;;;8.57;;
41875;SDS011;27555;50.808;4.402;2023-07-02T11:36:03;21.55;;;8.18;;
41875;SDS011;27555;50.808;4.402;2023-07-02T11:38:29;18.00;;;8.20;;
41875;SDS011;27555;50.808;4.402;2023-07-02T11:40:55;22.60;;;8.70;;
41875;SDS011;27555;50.808;4.402;2023-07-02T11:43:20;17.75;;;8.05;;
41875;SDS011;27555;50.808;4.402;2023-07-02T11:45:46;24.42;;;8.73;;
41875;SDS011;27555;50.808;4.402;2023-07-02T11:48:12;19.40;;;8.07;;
41875;SDS011;27555;50.808;4.402;2023-07-02T11:50:37;18.38;;;7.72;;
41875;SDS011;27555;50.808;4.402;2023-07-02T11:53:03;20.30;;;8.85;;
41875;SDS011;27555;50.808;4.402;2023-07-02T11:55:29;20.55;;;8.52;;
41875;SDS011;27555;50.808;4.402;2023-07-02T11:57:54;22.05;;;7.88;;
41875;SDS011;27555;50.808;4.402;2023-07-02T12:00:20;22.48;;;8.20;;
41875;SDS011;27555;50.808;4.402;2023-07-02T12:02:46;25.27;;;9.02;;
41875;SDS011;27555;50.808;4.402;2023-07-02T12:05:11;24.35;;;9.55;;
41875;SDS011;27555;50.808;4.402;2023-07-02T12:07:37;22.30;;;9.50;;
41875;SDS011;27555;50.808;4.402;2023-07-02T12:10:03;19.17;;;7.85;;
41875;SDS011;27555;50.808;4.402;2023-07-02T12:12:28;16.83;;;7.38;;
41875;SDS011;27555;50.808;4.402;2023-07-02T12:14:54;19.25;;;7.50;;
41875;SDS011;27555;50.808;4.402;2023-07-02T12:17:20;17.75;;;7.72;;
41875;SDS011;27555;50.808;4.402;2023-07-02T12:19:45;15.82;;;7.18;;
41875;SDS011;27555;50.808;4.402;2023-07-02T12:22:11;24.48;;;9.27;;
41875;SDS011;27555;50.808;4.402;2023-07-02T12:24:37;18.95;;;8.25;;
41875;SDS011;27555;50.808;4.402;2023-07-02T12:27:06;25.23;;;7.88;;
41875;SDS011;27555;50.808;4.402;2023-07-02T12:29:31;19.95;;;7.93;;
41875;SDS011;27555;50.808;4.402;2023-07-02T12:31:57;25.30;;;9.07;;
41875;SDS011;27555;50.808;4.402;2023-07-02T12:34:23;24.27;;;8.82;;
41875;SDS011;27555;50.808;4.402;2023-07-02T12:36:48;21.95;;;7.65;;
41875;SDS011;27555;50.808;4.402;2023-07-02T12:39:14;27.33;;;9.40;;
41875;SDS011;27555;50.808;4.402;2023-07-02T12:41:39;19.30;;;8.07;;
41875;SDS011;27555;50.808;4.402;2023-07-02T12:44:05;23.58;;;8.65;;
41875;SDS011;27555;50.808;4.402;2023-07-02T12:46:31;18.48;;;7.68;;
41875;SDS011;27555;50.808;4.402;2023-07-02T12:48:57;22.30;;;9.30;;
41875;SDS011;27555;50.808;4.402;2023-07-02T12:51:22;20.67;;;7.07;;
41875;SDS011;27555;50.808;4.402;2023-07-02T12:53:48;22.10;;;7.55;;
41875;SDS011;27555;50.808;4.402;2023-07-02T12:56:13;15.05;;;7.40;;
41875;SDS011;27555;50.808;4.402;2023-07-02T12:58:39;14.75;;;6.72;;
41875;SDS011;27555;50.808;4.402;2023-07-02T13:01:04;18.15;;;7.05;;
41875;SDS011;27555;50.808;4.402;2023-07-02T13:03:30;25.35;;;8.13;;
41875;SDS011;27555;50.808;4.402;2023-07-02T13:05:56;20.15;;;7.63;;
41875;SDS011;27555;50.808;4.402;2023-07-02T13:08:21;18.70;;;7.90;;
41875;SDS011;27555;50.808;4.402;2023-07-02T13:10:47;17.10;;;6.95;;
41875;SDS011;27555;50.808;4.402;2023-07-02T13:13:12;18.23;;;7.38;;
41875;SDS011;27555;50.808;4.402;2023-07-02T13:15:38;20.30;;;7.55;;
41875;SDS011;27555;50.808;4.402;2023-07-02T13:18:04;24.73;;;8.30;;
41875;SDS011;27555;50.808;4.402;2023-07-02T13:20:29;18.98;;;7.45;;
41875;SDS011;27555;50.808;4.402;2023-07-02T13:22:55;21.17;;;6.82;;
41875;SDS011;27555;50.808;4.402;2023-07-02T13:25:21;17.13;;;6.97;;
41875;SDS011;27555;50.808;4.402;2023-07-02T13:27:46;20.55;;;8.07;;
41875;SDS011;27555;50.808;4.402;2023-07-02T13:30:12;19.33;;;6.63;;
41875;SDS011;27555;50.808;4.402;2023-07-02T13:32:37;23.17;;;7.15;;
41875;SDS011;27555;50.808;4.402;2023-07-02T13:35:03;19.17;;;6.35;;
41875;SDS011;27555;50.808;4.402;2023-07-02T13:37:29;17.92;;;6.95;;
41875;SDS011;27555;50.808;4.402;2023-07-02T13:39:54;15.85;;;7.55;;
41875;SDS011;27555;50.808;4.402;2023-07-02T13:42:20;19.95;;;6.93;;
41875;SDS011;27555;50.808;4.402;2023-07-02T13:44:46;18.08;;;6.72;;
41875;SDS011;27555;50.808;4.402;2023-07-02T13:47:11;17.35;;;7.75;;
41875;SDS011;27555;50.808;4.402;2023-07-02T13:49:37;16.65;;;6.55;;
41875;SDS011;27555;50.808;4.402;2023-07-02T13:52:03;19.13;;;7.65;;
41875;SDS011;27555;50.808;4.402;2023-07-02T13:54:28;27.70;;;7.80;;
41875;SDS011;27555;50.808;4.402;2023-07-02T13:56:55;20.65;;;7.47;;
41875;SDS011;27555;50.808;4.402;2023-07-02T13:59:22;14.07;;;6.60;;
41875;SDS011;27555;50.808;4.402;2023-07-02T14:01:48;18.45;;;6.55;;
41875;SDS011;27555;50.808;4.402;2023-07-02T14:04:15;25.75;;;7.47;;
41875;SDS011;27555;50.808;4.402;2023-07-02T14:06:41;20.70;;;6.57;;
41875;SDS011;27555;50.808;4.402;2023-07-02T14:09:07;19.92;;;6.85;;
41875;SDS011;27555;50.808;4.402;2023-07-02T14:11:35;18.40;;;6.75;;
41875;SDS011;27555;50.808;4.402;2023-07-02T14:14:04;13.65;;;5.57;;
41875;SDS011;27555;50.808;4.402;2023-07-02T14:16:30;13.73;;;5.85;;
41875;SDS011;27555;50.808;4.402;2023-07-02T14:18:56;18.58;;;7.28;;
41875;SDS011;27555;50.808;4.402;2023-07-02T14:21:22;17.58;;;6.95;;
41875;SDS011;27555;50.808;4.402;2023-07-02T14:23:47;18.55;;;6.90;;
41875;SDS011;27555;50.808;4.402;2023-07-02T14:26:13;17.15;;;6.80;;
41875;SDS011;27555;50.808;4.402;2023-07-02T14:28:39;18.30;;;7.13;;